Time;durP1;ratioP1;P1;durP2;ratioP2;P2;SDS_P1;SDS_P2;PMS_P1;PMS_P2;Temp;Humidity;BMP_temperature;BMP_pressure;BME280_temperature;BME280_humidity;BME280_pressure;Samples;Min_cycle;Max_cycle;Signal;HPM_P1;HPM_P2
2021/06/22 00:00:36;;;;;;;5.03;1.70;;;;;;;;;;5066828;28;20430;-77
2021/06/22 00:03:02;;;;;;;2.30;1.60;;;;;;;;;;5066881;28;20443;-77
2021/06/22 00:05:28;;;;;;;3.55;1.90;;;;;;;;;;5083515;28;20190;-77
2021/06/22 00:07:55;;;;;;;4.45;2.53;;;;;;;;;;5066136;28;20207;-77
2021/06/22 00:10:23;;;;;;;3.65;1.80;;;;;;;;;;5082377;28;20172;-77
2021/06/22 00:12:49;;;;;;;4.05;2.20;;;;;;;;;;5073671;28;20189;-78
2021/06/22 00:15:16;;;;;;;4.60;2.38;;;;;;;;;;5070456;28;20232;-77
2021/06/22 00:17:42;;;;;;;3.95;1.70;;;;;;;;;;5069318;28;20646;-77
2021/06/22 00:20:10;;;;;;;3.95;1.52;;;;;;;;;;5082499;28;20206;-77
2021/06/22 00:22:36;;;;;;;4.22;1.55;;;;;;;;;;5065690;28;20184;-77
2021/06/22 00:25:02;;;;;;;3.65;1.45;;;;;;;;;;5066480;28;20185;-77
2021/06/22 00:27:28;;;;;;;2.83;1.75;;;;;;;;;;5076909;28;20182;-78
2021/06/22 00:29:54;;;;;;;1.60;1.20;;;;;;;;;;5055183;28;20196;-77
2021/06/22 00:32:20;;;;;;;1.60;1.38;;;;;;;;;;5081440;28;20436;-77
2021/06/22 00:34:46;;;;;;;2.65;1.42;;;;;;;;;;5066302;28;20244;-77
2021/06/22 00:37:15;;;;;;;3.08;1.52;;;;;;;;;;5066259;28;20223;-77
2021/06/22 00:39:41;;;;;;;3.65;1.60;;;;;;;;;;5082568;28;20187;-77
2021/06/22 00:42:07;;;;;;;1.88;1.27;;;;;;;;;;5064880;28;20554;-77
2021/06/22 00:44:43;;;;;;;2.75;1.55;;;;;;;;;;5082344;28;20180;-77
2021/06/22 00:47:09;;;;;;;1.83;1.20;;;;;;;;;;5066541;28;20703;-77
2021/06/22 00:49:35;;;;;;;2.47;1.40;;;;;;;;;;5051318;28;20237;-77
2021/06/22 00:52:01;;;;;;;1.40;1.30;;;;;;;;;;5064048;28;20461;-77
2021/06/22 00:54:27;;;;;;;3.25;1.35;;;;;;;;;;5067002;28;20431;-77
2021/06/22 00:56:53;;;;;;;6.20;1.70;;;;;;;;;;5065750;28;20203;-77
2021/06/22 00:59:19;;;;;;;2.10;1.10;;;;;;;;;;5064520;28;20434;-78
2021/06/22 01:01:45;;;;;;;1.95;1.30;;;;;;;;;;5080466;28;20515;-77
2021/06/22 01:04:11;;;;;;;6.00;1.75;;;;;;;;;;5082535;28;20268;-77
2021/06/22 01:06:37;;;;;;;1.33;1.20;;;;;;;;;;5082388;28;20549;-77
2021/06/22 01:09:06;;;;;;;3.03;1.48;;;;;;;;;;5079857;28;20435;-78
2021/06/22 01:11:32;;;;;;;2.08;1.52;;;;;;;;;;5051017;28;20260;-77
2021/06/22 01:13:58;;;;;;;2.53;1.70;;;;;;;;;;5079804;28;20192;-78
2021/06/22 01:16:26;;;;;;;2.43;1.73;;;;;;;;;;5065616;28;20474;-77
2021/06/22 01:18:59;;;;;;;4.30;1.83;;;;;;;;;;5057521;28;20467;-78
2021/06/22 01:21:26;;;;;;;2.92;1.77;;;;;;;;;;5075167;28;20177;-77
2021/06/22 01:23:52;;;;;;;4.22;2.45;;;;;;;;;;5064947;28;20270;-78
2021/06/22 01:26:18;;;;;;;2.40;2.20;;;;;;;;;;5081782;28;20193;-77
2021/06/22 01:28:44;;;;;;;3.17;2.63;;;;;;;;;;5065141;28;20443;-77
2021/06/22 01:31:11;;;;;;;2.47;1.88;;;;;;;;;;5069730;28;20239;-77
2021/06/22 01:33:38;;;;;;;3.83;2.13;;;;;;;;;;5068731;28;20224;-78
2021/06/22 01:36:04;;;;;;;2.05;1.70;;;;;;;;;;5055357;28;20212;-77
2021/06/22 01:38:30;;;;;;;3.17;2.88;;;;;;;;;;5064950;28;20188;-76
2021/06/22 01:40:56;;;;;;;3.90;2.05;;;;;;;;;;5079300;28;20192;-77
2021/06/22 01:43:24;;;;;;;3.50;2.00;;;;;;;;;;5071255;28;20257;-77
2021/06/22 01:45:50;;;;;;;2.60;2.40;;;;;;;;;;5077828;28;20521;-77
2021/06/22 01:48:16;;;;;;;3.72;2.38;;;;;;;;;;5081762;28;20198;-78
2021/06/22 01:50:42;;;;;;;2.97;1.80;;;;;;;;;;5082161;28;20260;-77
2021/06/22 01:53:08;;;;;;;4.22;2.22;;;;;;;;;;5079364;28;20457;-77
2021/06/22 01:55:43;;;;;;;3.05;2.35;;;;;;;;;;5064320;28;20207;-77
2021/06/22 01:58:10;;;;;;;2.78;1.92;;;;;;;;;;5064910;28;20180;-77
2021/06/22 02:00:37;;;;;;;2.33;1.80;;;;;;;;;;5074105;28;20182;-78
2021/06/22 02:03:03;;;;;;;9.82;2.28;;;;;;;;;;5056217;28;20189;-77
2021/06/22 02:05:29;;;;;;;2.50;2.13;;;;;;;;;;5081676;28;20214;-77
2021/06/22 02:07:55;;;;;;;2.67;2.20;;;;;;;;;;5063441;28;20169;-78
2021/06/22 02:10:21;;;;;;;4.33;2.80;;;;;;;;;;5080290;28;20255;-77
2021/06/22 02:12:47;;;;;;;6.60;2.40;;;;;;;;;;5065775;28;20502;-77
2021/06/22 02:15:14;;;;;;;3.30;2.33;;;;;;;;;;5063873;28;20487;-77
2021/06/22 02:17:40;;;;;;;3.50;2.50;;;;;;;;;;5066102;28;20637;-77
2021/06/22 02:20:06;;;;;;;5.18;2.88;;;;;;;;;;5079650;28;20172;-77
2021/06/22 02:22:33;;;;;;;2.72;2.25;;;;;;;;;;5065365;28;20168;-77
2021/06/22 02:24:59;;;;;;;3.05;2.80;;;;;;;;;;5064039;28;20181;-77
2021/06/22 02:27:29;;;;;;;3.22;2.95;;;;;;;;;;5064022;28;20181;-78
2021/06/22 02:29:55;;;;;;;3.00;2.70;;;;;;;;;;5074089;28;20216;-77
2021/06/22 02:32:21;;;;;;;6.40;2.88;;;;;;;;;;5052314;28;20221;-77
2021/06/22 02:34:48;;;;;;;5.88;3.28;;;;;;;;;;5059299;28;20173;-78
2021/06/22 02:37:14;;;;;;;3.88;3.45;;;;;;;;;;5079668;28;20208;-78
2021/06/22 02:39:40;;;;;;;6.05;3.38;;;;;;;;;;5081081;28;20243;-77
2021/06/22 02:42:06;;;;;;;5.18;3.38;;;;;;;;;;5065118;28;20185;-77
2021/06/22 02:44:32;;;;;;;3.45;3.15;;;;;;;;;;5063906;28;20186;-77
2021/06/22 02:46:58;;;;;;;3.42;2.78;;;;;;;;;;5078908;28;20190;-77
2021/06/22 02:49:24;;;;;;;3.05;2.60;;;;;;;;;;5062651;28;20423;-77
2021/06/22 02:51:50;;;;;;;2.92;2.35;;;;;;;;;;5063608;28;20197;-77
2021/06/22 02:54:16;;;;;;;3.93;2.97;;;;;;;;;;5063780;28;20185;-77
2021/06/22 02:56:42;;;;;;;4.03;3.67;;;;;;;;;;5079807;28;20467;-77
2021/06/22 02:59:08;;;;;;;5.07;4.30;;;;;;;;;;5079965;28;20945;-77
2021/06/22 03:01:34;;;;;;;4.60;3.90;;;;;;;;;;5078796;28;20445;-77
2021/06/22 03:04:00;;;;;;;5.43;3.80;;;;;;;;;;5063899;28;20467;-77
2021/06/22 03:06:26;;;;;;;4.53;3.90;;;;;;;;;;5074925;28;20446;-77
2021/06/22 03:08:52;;;;;;;4.43;4.03;;;;;;;;;;5069343;28;20440;-77
2021/06/22 03:11:18;;;;;;;6.83;5.30;;;;;;;;;;5080451;28;20435;-77
2021/06/22 03:13:44;;;;;;;5.90;4.13;;;;;;;;;;5062503;28;20415;-77
2021/06/22 03:16:10;;;;;;;6.23;4.50;;;;;;;;;;5080227;28;20471;-77
2021/06/22 03:18:36;;;;;;;5.82;4.75;;;;;;;;;;5064684;28;20437;-77
2021/06/22 03:21:02;;;;;;;5.00;4.47;;;;;;;;;;5080107;28;20624;-77
2021/06/22 03:23:28;;;;;;;6.45;5.20;;;;;;;;;;5082235;28;20475;-77
2021/06/22 03:25:54;;;;;;;5.88;5.38;;;;;;;;;;5082554;28;20180;-77
2021/06/22 03:28:20;;;;;;;6.63;6.00;;;;;;;;;;5068079;28;20177;-78
2021/06/22 03:30:47;;;;;;;8.73;6.13;;;;;;;;;;5083780;28;20509;-78
2021/06/22 03:33:13;;;;;;;7.00;5.70;;;;;;;;;;5067488;28;20642;-77
2021/06/22 03:35:39;;;;;;;8.75;6.43;;;;;;;;;;5066971;28;20201;-78
2021/06/22 03:38:05;;;;;;;10.65;6.88;;;;;;;;;;5083475;28;20172;-78
2021/06/22 03:40:31;;;;;;;7.60;5.35;;;;;;;;;;5079918;28;20177;-77
2021/06/22 03:42:57;;;;;;;9.25;6.75;;;;;;;;;;5066534;28;20189;-77
2021/06/22 03:45:24;;;;;;;7.37;6.43;;;;;;;;;;5083483;28;20185;-77
2021/06/22 03:47:50;;;;;;;9.88;7.30;;;;;;;;;;5067885;28;20466;-77
2021/06/22 03:50:16;;;;;;;11.27;8.30;;;;;;;;;;5082782;28;20189;-77
2021/06/22 03:52:43;;;;;;;8.23;6.90;;;;;;;;;;5065866;28;20181;-77
2021/06/22 03:55:28;;;;;;;10.60;8.88;;;;;;;;;;5083922;28;20193;-77
2021/06/22 03:57:55;;;;;;;10.23;9.18;;;;;;;;;;5067107;28;20180;-77
2021/06/22 04:00:21;;;;;;;14.40;11.20;;;;;;;;;;5068171;28;20647;-77
2021/06/22 04:02:48;;;;;;;16.25;10.82;;;;;;;;;;5067386;28;20238;-77
2021/06/22 04:05:14;;;;;;;12.60;11.20;;;;;;;;;;5066274;28;20211;-77
2021/06/22 04:07:40;;;;;;;13.98;11.30;;;;;;;;;;5065436;28;20188;-77
2021/06/22 04:10:06;;;;;;;12.63;11.43;;;;;;;;;;5066803;28;20193;-78
2021/06/22 04:12:33;;;;;;;14.38;12.02;;;;;;;;;;5076889;28;20528;-78
2021/06/22 04:14:59;;;;;;;12.63;11.32;;;;;;;;;;5076305;28;20849;-78
2021/06/22 04:17:25;;;;;;;12.20;11.00;;;;;;;;;;5051473;28;20189;-78
2021/06/22 04:19:51;;;;;;;14.90;12.40;;;;;;;;;;5066178;28;20181;-78
2021/06/22 04:22:17;;;;;;;13.38;11.82;;;;;;;;;;5061264;28;20703;-78
2021/06/22 04:24:43;;;;;;;12.43;11.13;;;;;;;;;;5064891;28;20244;-78
2021/06/22 04:27:09;;;;;;;13.20;11.90;;;;;;;;;;5079858;28;20447;-78
2021/06/22 04:29:35;;;;;;;12.63;11.02;;;;;;;;;;5052401;28;20207;-78
2021/06/22 04:32:01;;;;;;;12.67;11.40;;;;;;;;;;5066025;28;20211;-77
2021/06/22 04:34:27;;;;;;;12.70;11.48;;;;;;;;;;5063982;28;20431;-78
2021/06/22 04:36:53;;;;;;;12.00;10.68;;;;;;;;;;5072770;28;20224;-78
2021/06/22 04:39:19;;;;;;;12.60;10.90;;;;;;;;;;5067733;28;20181;-78
2021/06/22 04:41:45;;;;;;;13.43;10.95;;;;;;;;;;5066474;28;20526;-78
2021/06/22 04:44:11;;;;;;;13.57;10.95;;;;;;;;;;5065062;28;20195;-78
2021/06/22 04:46:38;;;;;;;13.95;10.70;;;;;;;;;;5064900;28;20191;-78
2021/06/22 04:49:04;;;;;;;12.20;10.93;;;;;;;;;;5071976;28;20193;-78
2021/06/22 04:51:30;;;;;;;12.60;10.93;;;;;;;;;;5064777;28;20196;-79
2021/06/22 04:53:56;;;;;;;13.07;11.75;;;;;;;;;;5082496;28;20589;-78
2021/06/22 04:56:23;;;;;;;11.20;10.07;;;;;;;;;;5065610;28;20228;-78
2021/06/22 04:58:50;;;;;;;11.55;10.45;;;;;;;;;;5063482;28;20180;-78
2021/06/22 05:01:16;;;;;;;10.48;9.48;;;;;;;;;;5063771;28;20211;-78
2021/06/22 05:03:42;;;;;;;10.63;9.63;;;;;;;;;;5080120;28;20184;-78
2021/06/22 05:06:08;;;;;;;11.30;10.10;;;;;;;;;;5065449;28;20188;-77
2021/06/22 05:08:34;;;;;;;11.88;10.68;;;;;;;;;;5065678;28;20181;-78
2021/06/22 05:11:00;;;;;;;12.00;10.82;;;;;;;;;;5063380;28;20272;-78
2021/06/22 05:13:26;;;;;;;12.20;10.90;;;;;;;;;;5064313;28;20184;-78
2021/06/22 05:15:52;;;;;;;11.83;10.63;;;;;;;;;;5079796;28;20248;-78
2021/06/22 05:18:18;;;;;;;11.88;10.75;;;;;;;;;;5064510;28;20470;-79
2021/06/22 05:20:44;;;;;;;12.80;10.65;;;;;;;;;;5063528;28;20214;-78
2021/06/22 05:23:10;;;;;;;11.97;10.70;;;;;;;;;;5063668;28;20196;-79
2021/06/22 05:25:36;;;;;;;10.23;9.32;;;;;;;;;;5063954;28;20423;-79
2021/06/22 05:28:02;;;;;;;11.07;10.10;;;;;;;;;;5073207;28;20185;-79
2021/06/22 05:30:28;;;;;;;10.40;9.40;;;;;;;;;;5064492;28;20519;-79
2021/06/22 05:32:54;;;;;;;12.30;10.60;;;;;;;;;;5072617;28;20212;-79
2021/06/22 05:35:20;;;;;;;9.38;8.55;;;;;;;;;;5053801;28;20519;-79
2021/06/22 05:37:46;;;;;;;9.93;8.93;;;;;;;;;;5064696;28;20232;-79
2021/06/22 05:40:12;;;;;;;9.45;8.65;;;;;;;;;;5080311;28;20197;-79
2021/06/22 05:42:38;;;;;;;10.02;9.02;;;;;;;;;;5064803;28;20287;-78
2021/06/22 05:45:05;;;;;;;9.75;8.70;;;;;;;;;;5064146;28;20178;-79
2021/06/22 05:47:31;;;;;;;10.50;9.02;;;;;;;;;;5080059;28;20173;-79
2021/06/22 05:49:58;;;;;;;9.50;8.65;;;;;;;;;;5079170;28;20638;-79
2021/06/22 05:52:25;;;;;;;9.05;7.68;;;;;;;;;;5065389;28;20172;-79
2021/06/22 05:54:51;;;;;;;10.30;9.30;;;;;;;;;;5064209;28;20188;-78
2021/06/22 05:57:17;;;;;;;8.87;7.97;;;;;;;;;;5081009;28;20233;-80
2021/06/22 05:59:43;;;;;;;8.20;7.45;;;;;;;;;;5064311;28;20475;-79
2021/06/22 06:02:09;;;;;;;7.88;7.07;;;;;;;;;;5079925;28;20177;-79
2021/06/22 06:04:35;;;;;;;9.07;7.30;;;;;;;;;;5070481;28;20177;-79
2021/06/22 06:07:01;;;;;;;9.82;8.93;;;;;;;;;;5063416;28;20450;-79
2021/06/22 06:09:27;;;;;;;8.80;7.93;;;;;;;;;;5064532;28;20216;-79
2021/06/22 06:11:54;;;;;;;8.95;8.05;;;;;;;;;;5064795;28;20471;-78
2021/06/22 06:14:20;;;;;;;9.80;9.00;;;;;;;;;;5074163;28;20583;-78
2021/06/22 06:16:46;;;;;;;10.25;8.95;;;;;;;;;;5078733;28;20220;-80
2021/06/22 06:19:12;;;;;;;8.67;7.87;;;;;;;;;;5079791;28;20550;-78
2021/06/22 06:21:39;;;;;;;9.20;8.45;;;;;;;;;;5064418;28;20442;-78
2021/06/22 06:24:05;;;;;;;9.45;8.45;;;;;;;;;;5065720;28;20177;-79
2021/06/22 06:26:38;;;;;;;9.00;8.20;;;;;;;;;;5080572;28;20279;-78
2021/06/22 06:29:15;;;;;;;9.15;8.25;;;;;;;;;;5077689;28;20183;-78
2021/06/22 06:31:41;;;;;;;11.40;10.30;;;;;;;;;;5061430;28;20181;-78
2021/06/22 06:34:07;;;;;;;13.63;11.90;;;;;;;;;;5063304;28;20228;-78
2021/06/22 06:36:33;;;;;;;13.70;12.30;;;;;;;;;;5065018;28;20466;-79
2021/06/22 06:38:59;;;;;;;16.83;12.10;;;;;;;;;;5070010;28;20469;-79
2021/06/22 06:41:25;;;;;;;14.77;13.27;;;;;;;;;;5064396;28;20405;-79
2021/06/22 06:43:51;;;;;;;17.00;14.03;;;;;;;;;;5062949;28;20488;-78
2021/06/22 06:46:17;;;;;;;16.03;14.03;;;;;;;;;;5063268;28;20419;-77
2021/06/22 06:48:43;;;;;;;16.90;15.07;;;;;;;;;;5071349;28;20528;-78
2021/06/22 06:51:09;;;;;;;16.45;13.93;;;;;;;;;;5064071;28;20522;-78
2021/06/22 06:53:35;;;;;;;18.88;14.48;;;;;;;;;;5059469;28;20192;-78
2021/06/22 06:56:01;;;;;;;16.73;14.90;;;;;;;;;;5078194;28;20197;-79
2021/06/22 06:58:27;;;;;;;16.30;14.70;;;;;;;;;;5064623;28;20449;-78
2021/06/22 07:00:53;;;;;;;17.20;15.57;;;;;;;;;;5082662;28;20220;-80
2021/06/22 07:03:19;;;;;;;16.57;14.80;;;;;;;;;;5079926;28;20810;-80
2021/06/22 07:05:45;;;;;;;17.67;14.55;;;;;;;;;;5070646;28;20432;-80
2021/06/22 07:08:12;;;;;;;17.65;15.55;;;;;;;;;;5072121;28;21096;-80
2021/06/22 07:10:38;;;;;;;16.95;14.10;;;;;;;;;;5067217;28;20205;-80
2021/06/22 07:13:12;;;;;;;15.13;13.68;;;;;;;;;;5067026;28;20261;-80
2021/06/22 07:15:38;;;;;;;15.68;14.10;;;;;;;;;;5060763;28;20313;-80
2021/06/22 07:18:04;;;;;;;16.23;14.60;;;;;;;;;;5082477;28;20182;-81
2021/06/22 07:20:30;;;;;;;18.08;14.10;;;;;;;;;;5066517;28;20439;-81
2021/06/22 07:22:56;;;;;;;15.50;14.00;;;;;;;;;;5065452;28;20177;-79
2021/06/22 07:25:25;;;;;;;16.17;14.67;;;;;;;;;;5067311;28;20188;-79
2021/06/22 07:27:52;;;;;;;15.68;14.18;;;;;;;;;;5069702;28;20463;-79
2021/06/22 07:30:19;;;;;;;15.60;14.05;;;;;;;;;;5068223;28;20189;-78
2021/06/22 07:32:45;;;;;;;15.15;13.65;;;;;;;;;;5076870;28;20548;-78
2021/06/22 07:35:11;;;;;;;14.35;12.32;;;;;;;;;;5066764;28;20184;-79
2021/06/22 07:37:39;;;;;;;13.20;11.98;;;;;;;;;;5066452;28;20173;-79
2021/06/22 07:40:06;;;;;;;13.82;12.00;;;;;;;;;;5066778;28;20177;-78
2021/06/22 07:42:32;;;;;;;12.77;11.68;;;;;;;;;;5066675;28;20201;-79
2021/06/22 07:44:58;;;;;;;12.35;11.27;;;;;;;;;;5078344;28;20200;-79
2021/06/22 07:47:24;;;;;;;15.60;11.97;;;;;;;;;;5065442;28;20177;-79
2021/06/22 07:49:50;;;;;;;8.63;7.87;;;;;;;;;;5065037;28;20408;-80
2021/06/22 07:52:16;;;;;;;9.35;8.40;;;;;;;;;;5076185;28;20782;-80
2021/06/22 07:54:42;;;;;;;13.73;10.40;;;;;;;;;;5066701;28;20267;-77
2021/06/22 07:57:08;;;;;;;18.10;10.90;;;;;;;;;;5080222;28;20668;-75
2021/06/22 07:59:34;;;;;;;49.80;15.90;;;;;;;;;;5067726;28;20431;-78
2021/06/22 08:02:00;;;;;;;27.20;11.70;;;;;;;;;;5065981;28;20177;-77
2021/06/22 08:04:26;;;;;;;43.10;12.57;;;;;;;;;;5068123;28;20851;-78
2021/06/22 08:06:52;;;;;;;13.98;9.40;;;;;;;;;;5067220;28;20469;-77
2021/06/22 08:09:19;;;;;;;7.90;7.20;;;;;;;;;;5065592;28;20185;-76
2021/06/22 08:11:45;;;;;;;16.00;7.75;;;;;;;;;;5066709;28;20181;-76
2021/06/22 08:14:11;;;;;;;11.33;8.93;;;;;;;;;;5081728;28;20188;-76
2021/06/22 08:16:37;;;;;;;13.63;8.80;;;;;;;;;;5080910;28;20467;-75
2021/06/22 08:19:03;;;;;;;17.43;10.53;;;;;;;;;;5082969;28;20474;-75
2021/06/22 08:21:29;;;;;;;22.08;13.63;;;;;;;;;;5083078;28;20461;-75
2021/06/22 08:23:55;;;;;;;21.58;15.40;;;;;;;;;;5065814;28;20244;-75
2021/06/22 08:26:21;;;;;;;23.27;15.40;;;;;;;;;;5065356;28;20185;-75
2021/06/22 08:28:47;;;;;;;21.83;15.05;;;;;;;;;;5063490;28;20480;-75
2021/06/22 08:31:13;;;;;;;28.08;15.52;;;;;;;;;;5069440;28;20189;-74
2021/06/22 08:33:39;;;;;;;27.45;14.57;;;;;;;;;;5066066;28;20224;-74
2021/06/22 08:36:05;;;;;;;23.55;15.75;;;;;;;;;;5081575;28;20235;-74
2021/06/22 08:38:32;;;;;;;17.75;14.77;;;;;;;;;;5065545;28;20208;-75
2021/06/22 08:40:58;;;;;;;22.10;15.30;;;;;;;;;;5064970;28;20172;-75
2021/06/22 08:43:24;;;;;;;38.58;17.70;;;;;;;;;;5065087;28;20170;-75
2021/06/22 08:45:51;;;;;;;41.10;18.13;;;;;;;;;;5073423;28;20554;-75
2021/06/22 08:48:17;;;;;;;32.97;18.00;;;;;;;;;;5070143;28;20736;-75
2021/06/22 08:50:44;;;;;;;22.65;16.65;;;;;;;;;;5053173;28;20185;-75
2021/06/22 08:53:12;;;;;;;28.42;16.45;;;;;;;;;;5065686;28;20681;-75
2021/06/22 08:55:38;;;;;;;28.63;16.98;;;;;;;;;;5062729;28;20204;-75
2021/06/22 08:58:05;;;;;;;28.40;16.73;;;;;;;;;;5063118;28;20244;-75
2021/06/22 09:00:35;;;;;;;43.85;18.88;;;;;;;;;;5059804;28;20265;-74
2021/06/22 09:03:01;;;;;;;35.25;17.75;;;;;;;;;;5056327;28;20216;-75
2021/06/22 09:05:28;;;;;;;29.00;16.45;;;;;;;;;;5081075;28;20189;-75
2021/06/22 09:07:54;;;;;;;24.33;15.57;;;;;;;;;;5062094;28;20180;-75
2021/06/22 09:10:20;;;;;;;41.30;16.33;;;;;;;;;;5055488;28;20174;-75
2021/06/22 09:12:46;;;;;;;34.87;16.30;;;;;;;;;;5076626;28;20180;-75
2021/06/22 09:15:16;;;;;;;40.38;16.95;;;;;;;;;;5064589;28;20475;-75
2021/06/22 09:17:42;;;;;;;23.17;14.55;;;;;;;;;;5065202;28;20184;-76
2021/06/22 09:20:09;;;;;;;16.88;13.55;;;;;;;;;;5063364;28;20169;-75
2021/06/22 09:22:35;;;;;;;16.85;11.52;;;;;;;;;;5064500;28;20183;-76
2021/06/22 09:25:01;;;;;;;22.50;12.97;;;;;;;;;;5070471;28;20185;-75
2021/06/22 09:27:47;;;;;;;39.45;13.30;;;;;;;;;;5063827;28;20454;-75
2021/06/22 09:30:13;;;;;;;35.80;13.82;;;;;;;;;;5064634;28;20590;-75
2021/06/22 09:32:41;;;;;;;19.00;10.75;;;;;;;;;;5082562;28;20656;-75
2021/06/22 09:35:21;;;;;;;21.63;10.88;;;;;;;;;;5063993;28;20184;-75
2021/06/22 09:37:51;;;;;;;13.55;8.82;;;;;;;;;;5064029;28;20183;-75
2021/06/22 09:40:29;;;;;;;18.58;10.43;;;;;;;;;;5081505;28;20212;-75
2021/06/22 09:42:57;;;;;;;22.60;10.90;;;;;;;;;;5065097;28;20185;-76
2021/06/22 09:45:23;;;;;;;19.13;11.23;;;;;;;;;;5064723;28;20219;-75
2021/06/22 09:47:49;;;;;;;18.73;10.55;;;;;;;;;;5065401;28;20379;-75
2021/06/22 09:50:38;;;;;;;24.55;9.48;;;;;;;;;;5063070;28;20181;-75
2021/06/22 09:53:23;;;;;;;13.23;8.38;;;;;;;;;;5062199;28;20194;-75
2021/06/22 09:55:50;;;;;;;20.90;9.30;;;;;;;;;;5049120;28;20579;-76
2021/06/22 09:58:16;;;;;;;13.77;8.85;;;;;;;;;;5062907;28;20181;-76
2021/06/22 10:00:42;;;;;;;14.23;9.50;;;;;;;;;;5075226;28;20215;-76
2021/06/22 10:03:10;;;;;;;14.95;9.25;;;;;;;;;;5062743;28;20264;-76
2021/06/22 10:05:52;;;;;;;13.30;8.50;;;;;;;;;;5078866;28;20653;-75
2021/06/22 10:08:18;;;;;;;14.60;8.43;;;;;;;;;;5063696;28;20282;-76
2021/06/22 10:10:44;;;;;;;14.43;8.55;;;;;;;;;;5063574;28;20184;-76
2021/06/22 10:13:30;;;;;;;13.98;8.50;;;;;;;;;;5054793;28;20198;-76
2021/06/22 10:16:15;;;;;;;12.48;7.70;;;;;;;;;;5063911;28;20243;-76
2021/06/22 10:18:41;;;;;;;7.78;6.97;;;;;;;;;;5076229;28;20188;-76
2021/06/22 10:21:07;;;;;;;10.87;8.20;;;;;;;;;;5064994;28;20197;-76
2021/06/22 10:23:33;;;;;;;8.40;6.03;;;;;;;;;;5078450;28;20795;-75
2021/06/22 10:25:59;;;;;;;11.20;5.50;;;;;;;;;;5063993;28;20237;-74
2021/06/22 10:28:25;;;;;;;10.10;4.43;;;;;;;;;;5063792;28;20197;-74
2021/06/22 10:30:51;;;;;;;7.07;3.70;;;;;;;;;;5065922;28;20197;-74
2021/06/22 10:33:17;;;;;;;10.40;4.95;;;;;;;;;;5058855;28;20563;-75
2021/06/22 10:35:46;;;;;;;6.57;3.83;;;;;;;;;;5068302;28;20205;-74
2021/06/22 10:38:12;;;;;;;17.20;5.30;;;;;;;;;;5067843;28;20505;-74
2021/06/22 10:40:38;;;;;;;6.50;3.63;;;;;;;;;;5082918;28;20776;-75
2021/06/22 10:43:06;;;;;;;15.50;4.90;;;;;;;;;;5068423;28;20518;-75
2021/06/22 10:45:32;;;;;;;5.90;4.40;;;;;;;;;;5078463;28;20203;-74
2021/06/22 10:48:00;;;;;;;8.07;4.55;;;;;;;;;;5081738;28;20642;-76
2021/06/22 10:50:26;;;;;;;8.25;3.85;;;;;;;;;;5080545;28;20184;-75
2021/06/22 10:53:02;;;;;;;16.53;4.30;;;;;;;;;;5067958;28;20271;-75
2021/06/22 10:55:28;;;;;;;6.38;3.30;;;;;;;;;;5076378;28;20423;-75
2021/06/22 10:57:58;;;;;;;6.32;3.50;;;;;;;;;;5078783;28;20208;-75
2021/06/22 11:00:24;;;;;;;5.82;3.42;;;;;;;;;;5078772;28;20180;-75
2021/06/22 11:02:59;;;;;;;6.00;3.38;;;;;;;;;;5056180;28;20183;-75
2021/06/22 11:05:25;;;;;;;8.98;3.75;;;;;;;;;;5068912;28;20587;-75
2021/06/22 11:08:12;;;;;;;7.10;3.90;;;;;;;;;;5082950;28;20199;-75
2021/06/22 11:10:41;;;;;;;9.13;4.20;;;;;;;;;;5047428;28;20230;-75
2021/06/22 11:13:07;;;;;;;7.60;5.28;;;;;;;;;;5071672;28;20239;-75
2021/06/22 11:15:50;;;;;;;7.35;3.63;;;;;;;;;;5061191;28;20224;-75
2021/06/22 11:18:19;;;;;;;8.55;3.95;;;;;;;;;;5083810;28;20185;-77
2021/06/22 11:20:54;;;;;;;5.85;4.15;;;;;;;;;;5083990;28;20188;-74
2021/06/22 11:23:22;;;;;;;6.32;3.13;;;;;;;;;;5065827;28;20247;-75
2021/06/22 11:26:04;;;;;;;8.25;4.20;;;;;;;;;;5082279;28;20845;-76
2021/06/22 11:28:49;;;;;;;8.45;4.10;;;;;;;;;;5066703;28;20199;-75
2021/06/22 11:31:31;;;;;;;9.77;4.43;;;;;;;;;;5066562;28;20183;-76
2021/06/22 11:34:14;;;;;;;15.77;4.00;;;;;;;;;;5069645;28;20284;-75
2021/06/22 11:36:44;;;;;;;6.80;4.22;;;;;;;;;;5067318;28;20207;-76
2021/06/22 11:39:29;;;;;;;12.63;7.07;;;;;;;;;;5082364;28;20203;-75
2021/06/22 11:42:08;;;;;;;17.42;4.95;;;;;;;;;;5082254;28;20942;-74
2021/06/22 11:44:35;;;;;;;9.27;4.45;;;;;;;;;;5063929;28;20282;-75
2021/06/22 11:47:04;;;;;;;12.23;5.35;;;;;;;;;;5066369;28;20179;-75
2021/06/22 11:49:38;;;;;;;16.55;5.75;;;;;;;;;;5064897;28;20256;-75
2021/06/22 11:52:10;;;;;;;11.02;4.90;;;;;;;;;;5066815;28;20187;-74
2021/06/22 11:54:50;;;;;;;8.70;4.47;;;;;;;;;;5076974;28;20199;-75
2021/06/22 11:57:27;;;;;;;11.55;4.65;;;;;;;;;;5074423;28;20213;-76
2021/06/22 11:59:54;;;;;;;17.13;6.07;;;;;;;;;;5082553;28;20186;-75
2021/06/22 12:02:20;;;;;;;13.80;5.20;;;;;;;;;;5081231;28;20208;-75
2021/06/22 12:04:48;;;;;;;15.98;5.00;;;;;;;;;;5066594;28;20175;-75
2021/06/22 12:07:14;;;;;;;9.52;4.90;;;;;;;;;;5078709;28;20189;-74
2021/06/22 12:09:40;;;;;;;10.07;4.32;;;;;;;;;;5076892;28;20196;-75
2021/06/22 12:12:07;;;;;;;9.13;5.05;;;;;;;;;;5081980;28;20191;-75
2021/06/22 12:14:33;;;;;;;11.90;3.95;;;;;;;;;;5082533;28;20782;-75
2021/06/22 12:17:00;;;;;;;6.55;3.85;;;;;;;;;;5080223;28;20205;-76
2021/06/22 12:19:27;;;;;;;9.77;4.47;;;;;;;;;;5067296;28;20169;-74
2021/06/22 12:21:54;;;;;;;6.35;3.97;;;;;;;;;;5074393;28;20260;-75
2021/06/22 12:24:22;;;;;;;5.57;3.25;;;;;;;;;;5070749;28;20184;-74
2021/06/22 12:26:50;;;;;;;4.65;4.07;;;;;;;;;;5069433;28;20189;-74
2021/06/22 12:29:23;;;;;;;6.05;3.10;;;;;;;;;;5081814;28;20202;-74
2021/06/22 12:31:56;;;;;;;5.85;3.22;;;;;;;;;;5076090;28;20733;-74
2021/06/22 12:34:23;;;;;;;5.47;3.65;;;;;;;;;;5065779;28;20247;-74
2021/06/22 12:36:49;;;;;;;7.70;3.13;;;;;;;;;;5081439;28;20216;-74
2021/06/22 12:39:16;;;;;;;4.32;2.97;;;;;;;;;;5065793;28;20181;-74
2021/06/22 12:41:42;;;;;;;6.45;2.90;;;;;;;;;;5066325;28;20689;-74
2021/06/22 12:44:09;;;;;;;3.22;2.30;;;;;;;;;;5081096;28;20175;-74
2021/06/22 12:46:36;;;;;;;3.40;2.40;;;;;;;;;;5065111;28;20191;-74
2021/06/22 12:49:06;;;;;;;3.30;2.15;;;;;;;;;;5082809;28;20256;-73
2021/06/22 12:51:36;;;;;;;4.00;2.25;;;;;;;;;;5065774;28;20602;-73
2021/06/22 12:54:06;;;;;;;4.70;2.17;;;;;;;;;;5065295;28;20224;-74
2021/06/22 12:56:45;;;;;;;2.40;1.80;;;;;;;;;;5065658;28;20206;-74
2021/06/22 12:59:11;;;;;;;3.55;1.92;;;;;;;;;;5065735;28;20179;-74
2021/06/22 13:01:38;;;;;;;3.15;1.95;;;;;;;;;;5063151;28;20173;-73
2021/06/22 13:04:06;;;;;;;2.15;1.80;;;;;;;;;;5065075;28;20181;-74
2021/06/22 13:06:41;;;;;;;2.13;1.92;;;;;;;;;;5079102;28;20181;-74
2021/06/22 13:09:08;;;;;;;4.57;2.00;;;;;;;;;;5066477;28;20209;-74
2021/06/22 13:11:35;;;;;;;1.55;1.45;;;;;;;;;;5064651;28;20182;-74
2021/06/22 13:14:12;;;;;;;3.65;1.83;;;;;;;;;;5064606;28;20176;-74
2021/06/22 13:16:38;;;;;;;4.70;1.80;;;;;;;;;;5063025;28;20234;-74
2021/06/22 13:19:07;;;;;;;2.17;1.92;;;;;;;;;;5066189;28;20185;-74
2021/06/22 13:21:38;;;;;;;2.17;1.60;;;;;;;;;;5074749;28;20185;-74
2021/06/22 13:24:05;;;;;;;2.33;2.00;;;;;;;;;;5062814;28;20184;-75
2021/06/22 13:26:32;;;;;;;3.38;2.50;;;;;;;;;;5070030;28;20188;-74
2021/06/22 13:28:59;;;;;;;3.53;1.60;;;;;;;;;;5075825;28;20260;-75
2021/06/22 13:31:25;;;;;;;1.90;1.70;;;;;;;;;;5064862;28;20195;-75
2021/06/22 13:33:58;;;;;;;3.83;2.33;;;;;;;;;;5072689;28;20650;-75
2021/06/22 13:36:24;;;;;;;2.17;1.98;;;;;;;;;;5070973;28;20614;-74
2021/06/22 13:39:04;;;;;;;2.60;2.00;;;;;;;;;;5073631;28;20181;-74
2021/06/22 13:41:31;;;;;;;5.35;2.00;;;;;;;;;;5053259;28;20258;-75
2021/06/22 13:43:57;;;;;;;3.70;2.00;;;;;;;;;;5073029;28;20181;-74
2021/06/22 13:46:28;;;;;;;3.03;2.00;;;;;;;;;;5052521;28;20186;-75
2021/06/22 13:48:55;;;;;;;2.30;2.00;;;;;;;;;;5069780;28;20182;-76
2021/06/22 13:51:28;;;;;;;3.90;2.20;;;;;;;;;;5071469;28;20234;-74
2021/06/22 13:54:03;;;;;;;6.15;2.08;;;;;;;;;;5064489;28;20188;-75
2021/06/22 13:56:30;;;;;;;2.30;2.10;;;;;;;;;;5065295;28;20295;-76
2021/06/22 13:58:56;;;;;;;2.83;2.63;;;;;;;;;;5079520;28;20176;-76
2021/06/22 14:01:22;;;;;;;3.38;2.50;;;;;;;;;;5079891;28;20180;-74
2021/06/22 14:03:48;;;;;;;3.92;2.80;;;;;;;;;;5072879;28;20185;-75
2021/06/22 14:06:16;;;;;;;4.65;2.83;;;;;;;;;;5056026;28;20259;-76
2021/06/22 14:08:42;;;;;;;3.33;2.65;;;;;;;;;;5081486;28;20203;-76
2021/06/22 14:11:08;;;;;;;3.25;3.05;;;;;;;;;;5064978;28;20177;-76
2021/06/22 14:13:34;;;;;;;3.40;2.80;;;;;;;;;;5061140;28;20181;-76
2021/06/22 14:16:00;;;;;;;3.20;2.90;;;;;;;;;;5065387;28;20225;-76
2021/06/22 14:18:27;;;;;;;3.83;3.42;;;;;;;;;;5081337;28;20246;-77
2021/06/22 14:20:54;;;;;;;3.40;3.10;;;;;;;;;;5081680;28;20193;-75
2021/06/22 14:23:20;;;;;;;3.15;2.85;;;;;;;;;;5064369;28;20180;-75
2021/06/22 14:25:46;;;;;;;2.72;2.40;;;;;;;;;;5079041;28;20214;-77
2021/06/22 14:28:24;;;;;;;3.30;3.00;;;;;;;;;;5069281;28;20185;-76
2021/06/22 14:30:51;;;;;;;3.90;3.50;;;;;;;;;;5076946;28;20188;-76
2021/06/22 14:33:18;;;;;;;3.40;3.10;;;;;;;;;;5076487;28;20185;-76
2021/06/22 14:35:44;;;;;;;3.67;3.40;;;;;;;;;;5051395;28;20676;-77